createdAt,value
2022-10-09T00:02:47.247Z,1.20
2022-10-09T00:07:51.456Z,1.02
2022-10-09T00:12:57.772Z,1.23
2022-10-09T00:18:01.729Z,0.77
2022-10-09T00:23:05.797Z,1.02
2022-10-09T00:28:14.982Z,1.10
2022-10-09T00:33:19.842Z,1.25
2022-10-09T00:38:23.800Z,1.90
2022-10-09T00:43:47.588Z,1.02
2022-10-09T00:48:57.916Z,0.90
2022-10-09T00:54:04.936Z,0.90
2022-10-09T00:59:11.814Z,1.10
2022-10-09T01:04:16.426Z,1.20
2022-10-09T01:09:24.306Z,0.73
2022-10-09T01:14:39.332Z,0.98
2022-10-09T01:20:00.963Z,1.05
2022-10-09T01:25:09.183Z,0.60
2022-10-09T01:30:14.974Z,0.85
2022-10-09T01:35:19.820Z,1.30
2022-10-09T01:40:26.748Z,1.25
2022-10-09T01:45:40.278Z,0.80
2022-10-09T01:50:46.986Z,1.05
2022-10-09T01:55:56.161Z,1.17
2022-10-09T02:01:06.435Z,1.15
2022-10-09T02:06:14.105Z,0.60
2022-10-09T02:11:18.599Z,1.38
2022-10-09T02:16:38.493Z,1.23
2022-10-09T02:21:46.834Z,1.58
2022-10-09T02:26:52.067Z,1.00
2022-10-09T02:31:58.147Z,1.00
2022-10-09T02:37:02.260Z,0.98
2022-10-09T02:42:06.712Z,1.75
2022-10-09T02:47:12.337Z,1.20
2022-10-09T02:52:16.415Z,1.95
2022-10-09T02:57:20.467Z,0.95
2022-10-09T03:02:26.480Z,0.95
2022-10-09T03:07:30.507Z,0.65
2022-10-09T03:12:34.487Z,1.98
2022-10-09T03:17:40.058Z,1.58
2022-10-09T03:22:44.012Z,1.38
2022-10-09T03:27:47.935Z,1.70
2022-10-09T03:32:53.476Z,1.50
2022-10-09T03:37:57.466Z,0.90
2022-10-09T03:43:01.439Z,1.33
2022-10-09T03:48:32.141Z,1.70
2022-10-09T03:53:37.696Z,0.82
2022-10-09T03:58:42.450Z,1.25
2022-10-09T04:03:48.428Z,1.95
2022-10-09T04:08:52.465Z,1.13
2022-10-09T04:13:58.105Z,1.80
2022-10-09T04:19:03.447Z,1.65
2022-10-09T04:24:09.721Z,2.47
2022-10-09T04:29:14.240Z,1.67
2022-10-09T04:34:19.673Z,1.95
2022-10-09T04:39:23.618Z,1.77
2022-10-09T04:44:30.011Z,1.90
2022-10-09T04:49:39.353Z,2.30
2022-10-09T04:54:48.228Z,2.00
2022-10-09T04:59:53.036Z,3.08
2022-10-09T05:05:03.715Z,2.40
2022-10-09T05:10:09.107Z,5.85
2022-10-09T05:15:13.458Z,6.20
2022-10-09T05:20:19.109Z,4.18
2022-10-09T05:25:23.376Z,2.95
2022-10-09T05:30:28.758Z,4.70
2022-10-09T05:35:36.171Z,4.53
2022-10-09T05:40:40.100Z,3.67
2022-10-09T05:45:58.817Z,3.95
2022-10-09T05:51:12.980Z,2.65
2022-10-09T05:56:19.717Z,4.38
2022-10-09T06:01:27.681Z,1.97
2022-10-09T06:06:36.716Z,2.42
2022-10-09T06:11:42.051Z,1.65
2022-10-09T06:16:46.944Z,2.45
2022-10-09T06:21:52.524Z,2.65
2022-10-09T06:26:56.564Z,2.08
2022-10-09T06:32:01.370Z,1.75
2022-10-09T06:37:06.955Z,1.80
2022-10-09T06:42:10.977Z,1.63
2022-10-09T06:47:26.822Z,2.08
2022-10-09T06:52:32.295Z,2.90
2022-10-09T06:57:36.216Z,1.27
2022-10-09T07:02:44.058Z,2.20
2022-10-09T07:07:49.646Z,1.30
2022-10-09T07:12:54.765Z,2.10
2022-10-09T07:17:58.743Z,1.98
2022-10-09T07:23:04.092Z,2.08
2022-10-09T07:28:08.285Z,2.03
2022-10-09T07:33:12.375Z,1.85
2022-10-09T07:38:17.664Z,2.00
2022-10-09T07:43:22.736Z,1.63
2022-10-09T07:48:26.662Z,1.48
2022-10-09T07:53:35.829Z,1.65
2022-10-09T07:58:40.977Z,1.73
2022-10-09T08:03:47.264Z,1.10
2022-10-09T08:08:53.892Z,1.58
2022-10-09T08:13:58.120Z,1.40
2022-10-09T08:19:03.186Z,1.92
2022-10-09T08:24:26.679Z,1.75
2022-10-09T08:29:40.210Z,1.98
2022-10-09T08:34:44.398Z,1.48
2022-10-09T08:39:49.736Z,1.75
2022-10-09T08:44:53.695Z,1.23
2022-10-09T08:50:10.287Z,2.28
2022-10-09T08:55:26.226Z,1.83
2022-10-09T09:00:41.419Z,1.45
2022-10-09T09:05:59.696Z,1.60
2022-10-09T09:11:21.393Z,1.10
2022-10-09T09:16:32.755Z,1.83
2022-10-09T09:21:42.789Z,1.35
2022-10-09T09:26:54.825Z,1.10
2022-10-09T09:32:02.351Z,1.27
2022-10-09T09:37:06.416Z,0.90
2022-10-09T09:42:17.093Z,0.95
2022-10-09T09:47:27.080Z,1.20
2022-10-09T09:52:36.052Z,1.75
2022-10-09T09:57:46.387Z,1.02
2022-10-09T10:02:51.163Z,1.08
2022-10-09T10:07:57.711Z,1.25
2022-10-09T10:13:03.107Z,1.47
2022-10-09T10:18:09.112Z,1.25
2022-10-09T10:23:26.015Z,0.90
2022-10-09T10:28:47.024Z,1.20
2022-10-09T10:33:56.805Z,0.90
2022-10-09T10:39:09.908Z,1.67
2022-10-09T10:44:24.097Z,1.48
2022-10-09T10:49:33.501Z,2.15
2022-10-09T10:54:42.647Z,1.08
2022-10-09T11:00:06.341Z,0.88
2022-10-09T11:05:34.645Z,1.40
2022-10-09T11:10:44.653Z,0.60
2022-10-09T11:16:02.357Z,0.75
2022-10-09T11:21:19.508Z,1.02
2022-10-09T11:26:33.068Z,0.60
2022-10-09T11:31:44.478Z,0.70
2022-10-09T11:36:49.232Z,1.13
2022-10-09T11:41:56.144Z,0.70
2022-10-09T11:47:11.302Z,0.63
2022-10-09T11:52:24.864Z,1.02
2022-10-09T11:57:30.969Z,1.40
2022-10-09T12:02:38.996Z,1.20
2022-10-09T12:07:50.172Z,1.30
2022-10-09T12:13:14.173Z,0.70
2022-10-09T12:18:36.513Z,0.85
2022-10-09T12:29:00.659Z,1.30
2022-10-09T12:34:37.612Z,1.17
2022-10-09T12:39:44.677Z,1.05
2022-10-09T12:44:58.152Z,0.68
2022-10-09T12:50:28.341Z,0.98
2022-10-09T12:56:16.727Z,0.57
2022-10-09T13:01:57.094Z,0.47
2022-10-09T13:07:16.962Z,0.63
2022-10-09T13:12:47.206Z,0.75
2022-10-09T13:17:57.272Z,0.80
2022-10-09T13:23:07.086Z,0.70
2022-10-09T13:28:20.299Z,1.13
2022-10-09T13:33:24.618Z,1.00
2022-10-09T13:38:34.622Z,0.52
2022-10-09T13:43:38.976Z,0.55
2022-10-09T13:48:43.493Z,0.60
2022-10-09T13:54:01.625Z,0.60
2022-10-09T13:59:06.008Z,1.20
2022-10-09T14:04:39.913Z,0.65
2022-10-09T14:09:52.730Z,0.50
2022-10-09T14:14:56.815Z,1.02
2022-10-09T14:20:00.829Z,0.55
2022-10-09T14:25:13.926Z,0.93
2022-10-09T14:30:34.795Z,0.90
2022-10-09T14:35:38.709Z,0.80
2022-10-09T14:40:45.580Z,0.60
2022-10-09T14:45:49.475Z,0.80
2022-10-09T14:50:53.413Z,0.90
2022-10-09T14:56:05.057Z,0.80
2022-10-09T15:01:20.874Z,0.95
2022-10-09T15:06:28.072Z,1.48
2022-10-09T15:11:41.114Z,0.90
2022-10-09T15:16:45.547Z,0.85
2022-10-09T15:21:49.499Z,0.73
2022-10-09T15:26:55.060Z,0.65
2022-10-09T15:32:03.910Z,0.60
2022-10-09T15:37:10.432Z,0.50
2022-10-09T15:42:15.778Z,1.57
2022-10-09T15:47:27.108Z,0.80
2022-10-09T15:53:16.936Z,0.90
2022-10-09T15:58:27.417Z,0.77
2022-10-09T16:03:36.432Z,0.82
2022-10-09T16:08:41.809Z,0.88
2022-10-09T16:13:57.914Z,0.70
2022-10-09T16:19:08.509Z,1.45
2022-10-09T16:24:25.490Z,1.05
2022-10-09T16:29:40.012Z,1.15
2022-10-09T16:35:06.140Z,0.65
2022-10-09T16:40:49.833Z,1.38
2022-10-09T16:46:23.173Z,1.00
2022-10-09T16:51:33.351Z,1.13
2022-10-09T16:57:08.658Z,2.10
2022-10-09T17:02:40.358Z,1.20
2022-10-09T17:07:53.887Z,1.95
2022-10-09T17:12:58.519Z,1.63
2022-10-09T17:18:04.284Z,1.55
2022-10-09T17:23:08.745Z,1.40
2022-10-09T17:28:13.016Z,1.98
2022-10-09T17:33:20.085Z,1.25
2022-10-09T17:38:24.244Z,2.45
2022-10-09T17:43:28.432Z,2.45
2022-10-09T17:48:44.470Z,2.08
2022-10-09T17:53:51.176Z,1.75
2022-10-09T17:58:56.136Z,1.90
2022-10-09T18:04:05.550Z,1.40
2022-10-09T18:09:09.705Z,2.65
2022-10-09T18:14:35.931Z,1.33
2022-10-09T18:19:46.027Z,2.37
2022-10-09T18:25:15.567Z,1.67
2022-10-09T18:30:27.724Z,2.17
2022-10-09T18:35:40.280Z,1.77
2022-10-09T18:40:45.929Z,2.85
2022-10-09T18:45:54.895Z,2.90
2022-10-09T18:51:05.195Z,4.50
2022-10-09T18:56:17.217Z,4.15
2022-10-09T19:01:21.546Z,3.80
2022-10-09T19:06:27.020Z,4.93
2022-10-09T19:11:32.350Z,4.55
2022-10-09T19:16:36.738Z,6.45
2022-10-09T19:21:44.035Z,5.75
2022-10-09T19:27:02.484Z,4.55
2022-10-09T19:32:06.794Z,4.40
2022-10-09T19:37:15.663Z,3.67
2022-10-09T19:42:30.416Z,1.70
2022-10-09T19:47:53.451Z,2.83
2022-10-09T19:53:44.258Z,3.72
2022-10-09T19:58:50.401Z,3.38
2022-10-09T20:04:05.135Z,2.67
2022-10-09T20:09:16.261Z,1.58
2022-10-09T20:14:25.217Z,1.90
2022-10-09T20:19:32.490Z,3.70
2022-10-09T20:24:54.435Z,2.38
2022-10-09T20:30:03.322Z,2.80
2022-10-09T20:35:10.905Z,2.15
2022-10-09T20:40:18.504Z,2.10
2022-10-09T20:45:27.460Z,3.13
2022-10-09T20:50:37.612Z,1.52
2022-10-09T20:55:52.769Z,1.75
2022-10-09T21:01:00.528Z,1.45
2022-10-09T21:06:07.987Z,1.38
2022-10-09T21:16:37.085Z,3.28
2022-10-09T21:21:51.026Z,2.45
2022-10-09T21:27:08.975Z,2.92
2022-10-09T21:32:14.039Z,2.22
2022-10-09T21:37:22.286Z,2.78
2022-10-09T21:42:27.910Z,1.30
2022-10-09T21:47:32.777Z,1.63
2022-10-09T21:52:37.987Z,1.48
2022-10-09T21:57:49.158Z,1.52
2022-10-09T22:02:55.954Z,2.08
2022-10-09T22:08:00.415Z,1.73
2022-10-09T22:13:06.822Z,1.70
2022-10-09T22:18:11.340Z,1.95
2022-10-09T22:23:16.281Z,1.83
2022-10-09T22:28:21.733Z,1.63
2022-10-09T22:33:25.954Z,1.95
2022-10-09T22:38:31.312Z,1.30
2022-10-09T22:43:37.375Z,1.55
2022-10-09T22:48:42.633Z,2.15
2022-10-09T22:53:47.735Z,2.83
2022-10-09T22:58:54.828Z,3.60
2022-10-09T23:03:59.165Z,1.80
2022-10-09T23:09:06.040Z,1.10
2022-10-09T23:14:12.395Z,1.83
2022-10-09T23:19:17.057Z,1.77
2022-10-09T23:24:21.764Z,1.92
2022-10-09T23:29:27.204Z,1.70
2022-10-09T23:34:31.525Z,1.20
2022-10-09T23:39:35.645Z,1.70
2022-10-09T23:44:41.229Z,2.03
2022-10-09T23:49:45.271Z,1.70
2022-10-09T23:54:49.744Z,1.30
2022-10-09T23:59:59.969Z,1.60
